Time;durP1;ratioP1;P1;durP2;ratioP2;P2;SDS_P1;SDS_P2;PMS_P1;PMS_P2;Temp;Humidity;BMP_temperature;BMP_pressure;BME280_temperature;BME280_humidity;BME280_pressure;Samples;Min_cycle;Max_cycle;Signal;HPM_P1;HPM_P2
2023/02/07 00:01:26;;;;;;;15.45;9.88;;;-0.70;69.00;;;;;;5134903;27;20227;-69
2023/02/07 00:03:55;;;;;;;15.02;10.23;;;-0.80;69.30;;;;;;5134751;27;20624;-69
2023/02/07 00:06:26;;;;;;;15.02;9.55;;;-0.80;69.40;;;;;;5134680;27;20192;-69
2023/02/07 00:08:55;;;;;;;15.75;11.65;;;-0.80;69.60;;;;;;5134892;27;21304;-69
2023/02/07 00:11:23;;;;;;;13.00;9.10;;;-0.80;69.70;;;;;;5134556;27;20216;-69
2023/02/07 00:13:52;;;;;;;18.23;10.95;;;-0.80;69.70;;;;;;5134823;27;20240;-69
2023/02/07 00:16:20;;;;;;;16.63;11.65;;;-0.70;69.90;;;;;;5134532;27;20191;-68
2023/02/07 00:18:47;;;;;;;15.55;10.38;;;-0.80;70.30;;;;;;5134692;27;20223;-74
2023/02/07 00:21:17;;;;;;;18.02;12.55;;;-0.80;70.50;;;;;;5134251;27;20188;-70
2023/02/07 00:23:46;;;;;;;19.20;11.00;;;-0.80;70.80;;;;;;5134438;27;20280;-70
2023/02/07 00:26:14;;;;;;;15.73;10.90;;;-0.80;70.60;;;;;;5134337;27;20227;-70
2023/02/07 00:28:41;;;;;;;17.70;11.20;;;-0.70;70.70;;;;;;5134388;27;20192;-69
2023/02/07 00:31:11;;;;;;;18.05;10.77;;;-0.70;70.60;;;;;;5134480;27;20223;-70
2023/02/07 00:33:43;;;;;;;16.52;10.38;;;-0.70;70.50;;;;;;5134101;27;20332;-69
2023/02/07 00:36:14;;;;;;;16.58;10.82;;;-0.60;70.50;;;;;;5133683;27;20655;-69
2023/02/07 00:38:41;;;;;;;14.80;9.95;;;-0.60;70.30;;;;;;5134494;27;20219;-69
2023/02/07 00:41:13;;;;;;;14.02;10.02;;;-0.60;70.50;;;;;;5133968;27;20235;-72
2023/02/07 00:43:46;;;;;;;12.48;9.15;;;-0.60;70.40;;;;;;5134182;27;20220;-70
2023/02/07 00:46:20;;;;;;;17.05;10.57;;;-0.60;69.80;;;;;;5133817;27;20271;-70
2023/02/07 00:48:52;;;;;;;17.50;10.93;;;-0.70;69.40;;;;;;5134100;27;20229;-70
2023/02/07 00:51:20;;;;;;;16.15;10.25;;;-0.70;69.70;;;;;;5134071;27;20286;-70
2023/02/07 00:53:48;;;;;;;14.60;10.20;;;-0.70;69.50;;;;;;5134048;27;20187;-70
2023/02/07 00:56:16;;;;;;;19.80;11.45;;;-0.80;69.40;;;;;;5133987;27;20649;-70
2023/02/07 00:58:43;;;;;;;17.15;10.00;;;-0.80;70.20;;;;;;5133549;27;20184;-69
2023/02/07 01:01:10;;;;;;;14.70;10.77;;;-0.90;69.70;;;;;;5133318;27;20279;-70
2023/02/07 01:03:43;;;;;;;13.40;10.25;;;-0.90;68.90;;;;;;5133408;27;20268;-70
2023/02/07 01:06:10;;;;;;;19.48;10.40;;;-0.90;68.40;;;;;;5133697;27;20269;-70
2023/02/07 01:08:42;;;;;;;15.43;9.90;;;-0.90;68.00;;;;;;5133372;27;20242;-71
2023/02/07 01:11:12;;;;;;;16.90;9.35;;;-1.00;67.80;;;;;;5132873;27;20707;-70
2023/02/07 01:13:51;;;;;;;13.90;9.63;;;-1.00;68.10;;;;;;5133855;27;20219;-70
2023/02/07 01:16:20;;;;;;;14.77;10.27;;;-1.10;68.20;;;;;;5133661;27;20215;-69
2023/02/07 01:18:47;;;;;;;20.38;11.98;;;-1.10;68.60;;;;;;5133739;27;20320;-70
2023/02/07 01:21:15;;;;;;;14.25;10.60;;;-1.10;68.90;;;;;;5133451;27;20192;-69
2023/02/07 01:23:42;;;;;;;14.25;10.38;;;-1.10;67.90;;;;;;5133502;27;20252;-69
2023/02/07 01:26:10;;;;;;;15.43;10.82;;;-1.20;67.80;;;;;;5133203;27;20630;-70
2023/02/07 01:28:39;;;;;;;19.85;10.90;;;-1.20;68.30;;;;;;5133766;27;20279;-70
2023/02/07 01:31:12;;;;;;;16.48;10.10;;;-1.30;68.40;;;;;;5133144;27;20244;-70
2023/02/07 01:33:39;;;;;;;15.80;11.27;;;-1.30;68.60;;;;;;5133455;27;20219;-70
2023/02/07 01:36:13;;;;;;;15.43;10.65;;;-1.30;68.00;;;;;;5133214;27;20187;-69
2023/02/07 01:38:42;;;;;;;16.25;10.25;;;-1.40;68.30;;;;;;5133433;27;20226;-70
2023/02/07 01:41:17;;;;;;;19.20;11.30;;;-1.50;68.80;;;;;;5133265;27;20346;-69
2023/02/07 01:44:03;;;;;;;18.38;10.45;;;-1.50;68.70;;;;;;5133000;27;20257;-70
2023/02/07 01:46:32;;;;;;;14.30;10.13;;;-1.50;69.00;;;;;;5133379;27;20231;-69
2023/02/07 01:49:03;;;;;;;18.88;11.55;;;-1.50;69.30;;;;;;5133405;27;20223;-71
2023/02/07 01:51:32;;;;;;;13.43;10.40;;;-1.60;69.70;;;;;;5133036;27;20183;-69
2023/02/07 01:54:02;;;;;;;14.70;10.55;;;-1.60;70.20;;;;;;5133088;27;20184;-69
2023/02/07 01:56:35;;;;;;;16.42;11.43;;;-1.60;70.70;;;;;;5132731;27;20188;-70
2023/02/07 01:59:05;;;;;;;14.75;10.43;;;-1.60;71.20;;;;;;5133424;28;20207;-70
2023/02/07 02:01:39;;;;;;;17.17;11.07;;;-1.60;71.80;;;;;;5133075;28;20230;-70
2023/02/07 02:04:06;;;;;;;16.92;12.18;;;-1.60;72.20;;;;;;5132987;28;20259;-71
2023/02/07 02:06:34;;;;;;;20.65;12.25;;;-1.50;72.70;;;;;;5132696;28;20642;-70
2023/02/07 02:09:07;;;;;;;19.90;12.20;;;-1.50;72.60;;;;;;5132840;28;20279;-70
2023/02/07 02:11:59;;;;;;;18.35;12.35;;;-1.50;71.90;;;;;;5135405;27;20366;-70
2023/02/07 02:14:45;;;;;;;18.67;12.43;;;-1.60;70.80;;;;;;5136623;27;20274;-70
2023/02/07 02:17:24;;;;;;;19.95;11.95;;;-1.60;70.60;;;;;;5137333;27;20567;-70
2023/02/07 02:20:17;;;;;;;16.17;11.70;;;-1.60;70.50;;;;;;5137066;27;20192;-70
2023/02/07 02:23:13;;;;;;;17.85;11.70;;;-1.60;69.30;;;;;;5137196;27;20665;-69
2023/02/07 02:26:16;;;;;;;15.10;10.65;;;-1.70;69.30;;;;;;5136683;27;20195;-69
2023/02/07 02:29:18;;;;;;;17.45;10.80;;;-1.70;69.30;;;;;;5104556;27;20195;-70
2023/02/07 02:32:30;;;;;;;16.48;10.93;;;-1.70;69.30;;;;;;5136591;27;20645;-70
2023/02/07 02:35:07;;;;;;;14.15;9.80;;;-1.70;69.80;;;;;;5137014;27;20183;-70
2023/02/07 02:37:46;;;;;;;14.57;10.90;;;-1.80;70.00;;;;;;5136465;27;20270;-70
2023/02/07 02:40:18;;;;;;;21.27;12.65;;;-1.70;70.50;;;;;;5136793;27;20222;-70
2023/02/07 02:42:53;;;;;;;13.35;10.43;;;-1.70;70.70;;;;;;5136486;27;20257;-71
2023/02/07 02:45:27;;;;;;;15.30;12.32;;;-1.70;71.00;;;;;;5136203;27;20296;-70
2023/02/07 02:47:55;;;;;;;18.85;13.63;;;-1.70;70.80;;;;;;5136525;27;20218;-70
2023/02/07 02:50:26;;;;;;;20.98;13.13;;;-1.70;71.30;;;;;;5136562;27;20184;-70
2023/02/07 02:52:56;;;;;;;22.30;15.35;;;-1.60;72.00;;;;;;5135916;27;20275;-71
2023/02/07 02:55:43;;;;;;;22.85;15.48;;;-1.60;73.00;;;;;;5136050;27;20244;-70
2023/02/07 02:58:17;;;;;;;20.40;13.15;;;-1.50;73.30;;;;;;5135771;27;20230;-70
2023/02/07 03:01:01;;;;;;;23.23;14.75;;;-1.50;73.60;;;;;;5135959;27;20274;-73
2023/02/07 03:04:04;;;;;;;18.45;13.32;;;-1.40;73.80;;;;;;5135902;27;20726;-70
2023/02/07 03:06:43;;;;;;;18.65;13.18;;;-1.30;73.60;;;;;;5135950;27;20650;-70
2023/02/07 03:09:21;;;;;;;23.30;14.70;;;-1.30;73.30;;;;;;5135949;27;20264;-70
2023/02/07 03:11:55;;;;;;;20.50;13.18;;;-1.30;73.70;;;;;;5135592;27;20250;-69
2023/02/07 03:14:30;;;;;;;25.00;14.40;;;-1.20;73.80;;;;;;5136061;27;20223;-70
2023/02/07 03:17:08;;;;;;;23.30;14.98;;;-1.20;73.80;;;;;;5135895;27;20615;-71
2023/02/07 03:19:40;;;;;;;20.50;13.95;;;-1.10;73.90;;;;;;5135827;27;20234;-71
2023/02/07 03:22:12;;;;;;;23.23;13.18;;;-1.10;73.60;;;;;;5135298;27;20290;-70
2023/02/07 03:24:43;;;;;;;27.35;14.68;;;-1.10;73.30;;;;;;5135778;27;20241;-71
2023/02/07 03:27:14;;;;;;;17.02;14.10;;;-1.10;73.00;;;;;;5135416;27;20230;-68
2023/02/07 03:29:46;;;;;;;20.60;14.07;;;-1.00;73.50;;;;;;5135608;27;20231;-71
2023/02/07 03:32:19;;;;;;;20.75;14.13;;;-1.00;73.70;;;;;;5135617;27;20219;-68
2023/02/07 03:34:52;;;;;;;26.40;16.40;;;-1.00;73.60;;;;;;5135766;27;20611;-70
2023/02/07 03:37:29;;;;;;;21.90;14.13;;;-1.00;73.50;;;;;;5135418;27;20238;-74
2023/02/07 03:40:01;;;;;;;21.73;15.32;;;-1.00;73.30;;;;;;5135929;27;20191;-70
2023/02/07 03:42:35;;;;;;;20.60;15.82;;;-1.00;73.30;;;;;;5135619;27;20589;-70
2023/02/07 03:45:08;;;;;;;20.75;13.70;;;-1.00;73.20;;;;;;5135435;27;20254;-70
2023/02/07 03:47:35;;;;;;;21.25;14.82;;;-1.00;72.70;;;;;;5135726;27;20187;-71
2023/02/07 03:50:02;;;;;;;17.77;13.88;;;-1.00;72.40;;;;;;5135299;27;20188;-70
2023/02/07 03:52:30;;;;;;;21.60;14.80;;;-1.00;72.40;;;;;;5135382;27;20191;-70
2023/02/07 03:54:58;;;;;;;20.35;15.07;;;-1.10;72.40;;;;;;5135410;27;20603;-69
2023/02/07 03:57:25;;;;;;;21.73;15.60;;;-1.10;72.40;;;;;;5134960;27;20382;-69
2023/02/07 03:59:53;;;;;;;19.92;14.02;;;-1.20;71.80;;;;;;5135038;27;20231;-70
2023/02/07 04:02:20;;;;;;;17.95;13.73;;;-1.20;72.20;;;;;;5135356;27;20599;-70
2023/02/07 04:04:49;;;;;;;19.85;15.75;;;-1.40;72.80;;;;;;5134364;27;20307;-70
2023/02/07 04:07:19;;;;;;;23.83;15.85;;;-1.40;73.60;;;;;;5135237;27;20249;-68
2023/02/07 04:09:48;;;;;;;20.50;14.55;;;-1.40;73.70;;;;;;5135122;27;20188;-70
2023/02/07 04:12:15;;;;;;;21.88;14.55;;;-1.40;73.60;;;;;;5134142;27;20315;-70
2023/02/07 04:14:42;;;;;;;24.90;16.42;;;-1.30;73.80;;;;;;5134693;27;20227;-70
2023/02/07 04:17:09;;;;;;;18.38;14.35;;;-1.30;74.00;;;;;;5134520;27;20594;-70
2023/02/07 04:19:36;;;;;;;20.70;14.70;;;-1.30;74.10;;;;;;5135126;27;20199;-70
2023/02/07 04:22:05;;;;;;;24.23;14.80;;;-1.20;74.20;;;;;;5134439;27;20187;-69
2023/02/07 04:24:34;;;;;;;21.20;15.27;;;-1.20;74.30;;;;;;5134327;27;20288;-69
2023/02/07 04:27:03;;;;;;;21.40;13.73;;;-1.20;74.40;;;;;;5134405;27;20665;-69
2023/02/07 04:29:30;;;;;;;25.67;16.30;;;-1.20;74.70;;;;;;5135010;27;20200;-72
2023/02/07 04:31:57;;;;;;;23.38;16.63;;;-1.20;74.60;;;;;;5134665;27;20195;-70
2023/02/07 04:34:24;;;;;;;21.35;14.93;;;-1.30;74.10;;;;;;5133625;27;20196;-70
2023/02/07 04:36:56;;;;;;;24.05;15.93;;;-1.40;74.10;;;;;;5134502;27;20223;-70
2023/02/07 04:39:23;;;;;;;26.83;15.70;;;-1.40;74.00;;;;;;5134192;27;20230;-70
2023/02/07 04:41:56;;;;;;;22.92;15.80;;;-1.40;74.30;;;;;;5134307;27;20545;-70
2023/02/07 04:44:24;;;;;;;18.50;13.40;;;-1.40;74.10;;;;;;5134203;27;20302;-70
2023/02/07 04:46:51;;;;;;;21.40;14.70;;;-1.40;74.10;;;;;;5133590;27;20210;-70
2023/02/07 04:49:18;;;;;;;29.33;15.82;;;-1.40;74.00;;;;;;5134090;27;20188;-70
2023/02/07 04:51:47;;;;;;;20.75;15.75;;;-1.40;73.90;;;;;;5133853;27;20244;-70
2023/02/07 04:54:15;;;;;;;21.88;16.38;;;-1.40;73.70;;;;;;5133940;27;20673;-70
2023/02/07 04:56:44;;;;;;;25.48;15.25;;;-1.40;73.90;;;;;;5133749;27;20229;-70
2023/02/07 04:59:11;;;;;;;22.83;15.63;;;-1.40;73.40;;;;;;5133850;27;20546;-70
2023/02/07 05:01:39;;;;;;;23.10;15.95;;;-1.40;73.20;;;;;;5133948;27;20188;-70
2023/02/07 05:04:06;;;;;;;24.02;16.50;;;-1.40;73.40;;;;;;5133584;27;20230;-70
2023/02/07 05:06:41;;;;;;;20.77;15.32;;;-1.50;73.30;;;;;;5133523;27;20279;-70
2023/02/07 05:09:08;;;;;;;22.52;15.77;;;-1.40;74.40;;;;;;5133715;27;20318;-70
2023/02/07 05:11:35;;;;;;;24.17;16.80;;;-1.40;73.60;;;;;;5133608;27;20308;-70
2023/02/07 05:14:04;;;;;;;24.30;15.68;;;-1.40;73.50;;;;;;5133637;27;20191;-70
2023/02/07 05:16:36;;;;;;;23.42;16.45;;;-1.40;73.10;;;;;;5133740;27;20188;-70
2023/02/07 05:19:04;;;;;;;23.00;14.63;;;-1.50;72.80;;;;;;5133764;27;20191;-70
2023/02/07 05:21:31;;;;;;;22.75;14.98;;;-1.50;72.70;;;;;;5133341;27;20244;-71
2023/02/07 05:23:58;;;;;;;22.35;15.65;;;-1.50;72.30;;;;;;5133526;27;20233;-70
2023/02/07 05:26:26;;;;;;;21.23;14.80;;;-1.60;71.50;;;;;;5133483;27;20637;-71
2023/02/07 05:28:58;;;;;;;24.42;15.35;;;-1.80;71.20;;;;;;5133273;27;20274;-69
2023/02/07 05:34:07;;;;;;;24.65;17.23;;;-1.90;72.80;;;;;;5133109;27;20187;-70
2023/02/07 05:36:34;;;;;;;25.35;18.02;;;-2.00;73.40;;;;;;5133074;27;20582;-70
2023/02/07 05:39:01;;;;;;;26.73;16.13;;;-2.00;73.50;;;;;;5133367;27;20223;-70
2023/02/07 05:41:31;;;;;;;27.10;16.73;;;-2.00;73.80;;;;;;5133108;27;20394;-70
2023/02/07 05:43:59;;;;;;;21.25;16.90;;;-2.00;72.00;;;;;;5132942;27;20233;-70
2023/02/07 05:46:31;;;;;;;28.83;18.02;;;-2.00;71.60;;;;;;5132345;27;20619;-68
2023/02/07 05:48:58;;;;;;;24.88;14.68;;;-2.00;72.00;;;;;;5132979;27;20642;-70
2023/02/07 05:51:26;;;;;;;24.35;14.73;;;-2.00;72.10;;;;;;5133116;27;20234;-69
2023/02/07 05:53:58;;;;;;;24.52;15.38;;;-2.10;72.30;;;;;;5133055;27;20183;-70
2023/02/07 05:56:27;;;;;;;22.70;15.48;;;-2.10;73.00;;;;;;5132794;28;20192;-70
2023/02/07 05:58:54;;;;;;;24.13;16.48;;;-2.10;73.60;;;;;;5133317;28;20219;-70
2023/02/07 06:01:22;;;;;;;20.55;15.95;;;-2.10;73.30;;;;;;5133400;27;20214;-69
2023/02/07 06:03:56;;;;;;;23.45;16.77;;;-2.10;73.10;;;;;;5132944;28;20223;-70
2023/02/07 06:06:23;;;;;;;23.42;15.05;;;-2.10;72.80;;;;;;5133375;28;20699;-70
2023/02/07 06:08:54;;;;;;;23.40;15.88;;;-2.10;73.30;;;;;;5133209;28;20191;-69
2023/02/07 06:11:23;;;;;;;22.60;15.45;;;-2.10;73.70;;;;;;5133057;27;20259;-70
2023/02/07 06:13:50;;;;;;;22.48;13.68;;;-2.20;73.90;;;;;;5133125;27;20229;-70
2023/02/07 06:16:21;;;;;;;20.67;13.40;;;-2.20;73.60;;;;;;5131583;28;20263;-71
2023/02/07 06:18:53;;;;;;;20.08;13.75;;;-2.20;72.70;;;;;;5127890;27;20638;-70
2023/02/07 06:21:25;;;;;;;22.73;15.55;;;-2.20;71.40;;;;;;5130866;27;20195;-70
2023/02/07 06:23:57;;;;;;;32.92;17.55;;;-2.30;70.90;;;;;;5128856;27;20219;-69
2023/02/07 06:26:24;;;;;;;29.90;19.67;;;-2.30;71.10;;;;;;5130020;28;20331;-70
2023/02/07 06:28:56;;;;;;;28.52;18.52;;;-2.30;71.50;;;;;;5130984;28;20298;-70
2023/02/07 06:31:25;;;;;;;26.13;16.63;;;-2.30;71.50;;;;;;5129587;28;20588;-69
2023/02/07 06:33:54;;;;;;;29.95;17.75;;;-2.30;71.40;;;;;;5130603;27;20244;-70
2023/02/07 06:36:30;;;;;;;30.95;19.02;;;-2.40;71.00;;;;;;5129988;28;20227;-70
2023/02/07 06:38:58;;;;;;;28.33;18.40;;;-2.40;70.70;;;;;;5131049;27;20187;-71
2023/02/07 06:41:25;;;;;;;28.45;17.90;;;-2.40;70.70;;;;;;5126137;28;20233;-71
2023/02/07 06:43:52;;;;;;;32.60;19.77;;;-2.50;70.50;;;;;;5131260;28;20187;-70
2023/02/07 06:46:19;;;;;;;30.88;19.75;;;-2.50;70.50;;;;;;5131433;28;20223;-70
2023/02/07 06:48:51;;;;;;;28.45;19.67;;;-2.60;70.80;;;;;;5130870;28;20343;-71
2023/02/07 06:51:21;;;;;;;27.40;20.52;;;-2.60;70.70;;;;;;5127768;28;20195;-69
2023/02/07 06:54:09;;;;;;;28.55;20.38;;;-2.70;70.80;;;;;;5128813;28;20271;-69
2023/02/07 06:56:36;;;;;;;34.95;21.52;;;-2.70;71.20;;;;;;5130469;27;20348;-69
2023/02/07 06:59:06;;;;;;;31.75;21.65;;;-2.70;71.60;;;;;;5135059;27;20183;-70
2023/02/07 07:01:38;;;;;;;32.90;20.17;;;-2.60;72.20;;;;;;5134475;27;20199;-70
2023/02/07 07:04:08;;;;;;;30.67;19.42;;;-2.40;72.30;;;;;;5129292;27;20208;-70
2023/02/07 07:06:35;;;;;;;25.50;19.73;;;-2.40;71.00;;;;;;5131126;27;20243;-70
2023/02/07 07:09:03;;;;;;;29.75;19.58;;;-2.20;70.60;;;;;;5133690;27;20256;-71
2023/02/07 07:11:32;;;;;;;27.83;19.38;;;-2.10;70.90;;;;;;5133537;27;20224;-71
2023/02/07 07:13:59;;;;;;;29.77;19.42;;;-2.00;70.80;;;;;;5134465;27;20239;-70
2023/02/07 07:16:26;;;;;;;33.42;19.05;;;-1.80;71.30;;;;;;5133353;27;20230;-70
2023/02/07 07:18:53;;;;;;;30.23;17.98;;;-1.60;71.80;;;;;;5133438;27;20570;-70
2023/02/07 07:21:20;;;;;;;30.60;19.58;;;-1.50;70.90;;;;;;5133239;27;20260;-70
2023/02/07 07:23:47;;;;;;;29.60;18.70;;;-1.30;69.90;;;;;;5132568;27;20227;-71
2023/02/07 07:26:14;;;;;;;35.30;21.80;;;-1.10;69.70;;;;;;5133930;27;20607;-70
2023/02/07 07:28:42;;;;;;;28.98;19.95;;;-0.90;69.20;;;;;;5133556;27;20239;-70
2023/02/07 07:31:10;;;;;;;31.55;20.75;;;-0.70;69.70;;;;;;5133799;27;20196;-71
2023/02/07 07:33:37;;;;;;;31.80;21.25;;;-0.50;69.20;;;;;;5133020;27;20203;-70
2023/02/07 07:36:04;;;;;;;24.35;17.80;;;-0.30;69.00;;;;;;5133290;27;20198;-71
2023/02/07 07:38:32;;;;;;;33.03;21.30;;;0.10;69.00;;;;;;5132601;27;20271;-73
2023/02/07 07:41:00;;;;;;;28.08;20.13;;;0.40;67.70;;;;;;5133098;27;20231;-70
2023/02/07 07:43:27;;;;;;;39.55;25.77;;;0.60;67.30;;;;;;5133565;27;20265;-71
2023/02/07 07:45:58;;;;;;;40.13;26.60;;;0.90;67.00;;;;;;5130498;27;20302;-71
2023/02/07 07:48:26;;;;;;;27.55;20.45;;;1.20;65.80;;;;;;5131905;27;20583;-70
2023/02/07 07:50:53;;;;;;;25.75;21.20;;;1.50;65.20;;;;;;5134438;27;20660;-71
2023/02/07 07:53:20;;;;;;;27.88;21.00;;;1.80;64.00;;;;;;5133761;27;20742;-70
2023/02/07 07:55:51;;;;;;;27.40;19.85;;;2.10;63.20;;;;;;5132394;27;20209;-70
2023/02/07 07:58:19;;;;;;;24.90;18.33;;;2.50;62.00;;;;;;5135186;27;20207;-70
2023/02/07 08:00:47;;;;;;;21.73;16.17;;;2.70;61.10;;;;;;5135163;27;20228;-71
2023/02/07 08:03:16;;;;;;;19.58;14.85;;;3.00;60.10;;;;;;5135009;27;20239;-70
2023/02/07 08:05:44;;;;;;;23.70;15.88;;;3.30;59.60;;;;;;5135371;27;20316;-71
2023/02/07 08:08:12;;;;;;;22.00;16.75;;;3.60;58.70;;;;;;5134101;27;20187;-70
2023/02/07 08:10:39;;;;;;;23.10;16.33;;;3.90;57.80;;;;;;5134601;27;20280;-73
2023/02/07 08:13:06;;;;;;;24.23;15.80;;;4.30;57.00;;;;;;5135200;27;20226;-71
2023/02/07 08:15:33;;;;;;;20.73;17.15;;;4.60;56.10;;;;;;5134905;27;20216;-71
2023/02/07 08:18:00;;;;;;;20.50;16.58;;;4.80;55.80;;;;;;5135131;27;20312;-73
2023/02/07 08:20:28;;;;;;;18.10;14.45;;;5.10;54.80;;;;;;5135162;27;20225;-70
2023/02/07 08:22:56;;;;;;;20.95;15.98;;;5.40;54.00;;;;;;5135025;27;20280;-71
2023/02/07 08:25:23;;;;;;;20.25;15.15;;;5.60;53.00;;;;;;5134960;27;20554;-73
2023/02/07 08:27:50;;;;;;;20.88;14.48;;;6.00;52.50;;;;;;5134819;27;20926;-71
2023/02/07 08:30:18;;;;;;;18.55;13.63;;;6.40;51.60;;;;;;5134787;27;20192;-71
2023/02/07 08:32:45;;;;;;;22.02;15.05;;;6.70;50.60;;;;;;5134696;27;20183;-71
2023/02/07 08:35:13;;;;;;;18.95;14.02;;;7.00;49.70;;;;;;5134721;27;20684;-70
2023/02/07 08:37:41;;;;;;;17.90;14.35;;;7.30;48.90;;;;;;5134569;27;20270;-71
2023/02/07 08:40:09;;;;;;;17.05;13.27;;;7.50;47.70;;;;;;5134632;27;20188;-71
2023/02/07 08:42:36;;;;;;;22.40;14.93;;;7.80;47.30;;;;;;5134549;27;20274;-71
2023/02/07 08:45:04;;;;;;;15.57;11.88;;;8.10;47.00;;;;;;5134478;27;20286;-71
2023/02/07 08:47:31;;;;;;;19.80;13.85;;;8.40;46.00;;;;;;5134413;27;20684;-72
2023/02/07 08:49:58;;;;;;;17.63;13.93;;;8.60;45.30;;;;;;5134069;27;20618;-71
2023/02/07 08:52:25;;;;;;;15.68;13.10;;;8.90;44.40;;;;;;5134228;27;20234;-71
2023/02/07 08:54:54;;;;;;;16.83;13.13;;;9.20;44.00;;;;;;5134410;27;20278;-71
2023/02/07 08:57:23;;;;;;;16.67;14.80;;;9.50;43.10;;;;;;5134188;27;20666;-72
2023/02/07 08:59:50;;;;;;;16.42;14.70;;;9.80;42.70;;;;;;5134253;27;20202;-71
2023/02/07 09:02:17;;;;;;;17.50;14.05;;;10.10;41.10;;;;;;5133681;27;20284;-71
2023/02/07 09:04:44;;;;;;;16.63;14.50;;;10.40;40.40;;;;;;5134382;27;20276;-71
2023/02/07 09:07:11;;;;;;;17.15;14.60;;;10.70;40.30;;;;;;5134199;27;20306;-72
2023/02/07 09:09:39;;;;;;;19.17;14.68;;;10.90;39.50;;;;;;5133691;27;20279;-71
2023/02/07 09:12:08;;;;;;;17.80;14.35;;;11.20;38.90;;;;;;5133843;27;20283;-72
2023/02/07 09:14:35;;;;;;;15.90;14.25;;;11.40;38.60;;;;;;5133997;27;20223;-71
2023/02/07 09:17:02;;;;;;;19.77;13.60;;;11.70;37.90;;;;;;5134196;27;20350;-71
2023/02/07 09:19:29;;;;;;;16.65;14.10;;;11.80;36.70;;;;;;5133789;27;20274;-71
2023/02/07 09:21:56;;;;;;;14.85;12.18;;;12.00;36.50;;;;;;5133899;27;20231;-70
2023/02/07 09:24:23;;;;;;;13.25;11.75;;;12.20;36.10;;;;;;5133653;27;20227;-71
2023/02/07 09:26:50;;;;;;;16.63;12.88;;;12.50;36.10;;;;;;5133752;27;20307;-70
2023/02/07 09:29:19;;;;;;;18.60;14.02;;;12.80;35.00;;;;;;5133752;27;20290;-70
2023/02/07 09:31:48;;;;;;;14.27;12.77;;;12.90;34.60;;;;;;5133548;27;20192;-71
2023/02/07 09:34:15;;;;;;;13.95;12.43;;;13.20;34.80;;;;;;5133446;27;20230;-71
2023/02/07 09:36:43;;;;;;;24.80;19.02;;;13.40;34.10;;;;;;5133734;27;20219;-71
2023/02/07 09:39:10;;;;;;;16.80;13.93;;;13.60;33.70;;;;;;5133787;27;20219;-71
2023/02/07 09:41:45;;;;;;;19.83;15.35;;;13.80;33.20;;;;;;5133426;27;20278;-71
2023/02/07 09:44:16;;;;;;;18.37;15.13;;;14.00;32.70;;;;;;5133624;27;20248;-71
2023/02/07 09:46:50;;;;;;;15.93;12.80;;;14.20;31.90;;;;;;5133337;27;20559;-71
2023/02/07 09:49:29;;;;;;;15.10;12.30;;;14.40;31.80;;;;;;5133562;27;20434;-71
2023/02/07 09:51:57;;;;;;;17.30;13.43;;;14.50;31.10;;;;;;5133190;27;20438;-71
2023/02/07 09:54:27;;;;;;;14.60;12.73;;;14.70;31.00;;;;;;5133155;27;20443;-70
2023/02/07 09:57:00;;;;;;;15.30;12.77;;;14.90;30.80;;;;;;5133327;27;20555;-71
2023/02/07 09:59:37;;;;;;;15.80;12.53;;;15.00;30.00;;;;;;5133692;27;20530;-71
2023/02/07 10:02:17;;;;;;;14.70;12.17;;;15.10;30.20;;;;;;5133513;27;20516;-71
2023/02/07 10:04:48;;;;;;;15.03;13.43;;;15.30;29.60;;;;;;5133374;28;20486;-71
2023/02/07 10:07:15;;;;;;;12.90;11.60;;;15.40;29.20;;;;;;5132940;27;20507;-71
2023/02/07 10:09:44;;;;;;;12.70;9.97;;;15.50;29.30;;;;;;5133061;27;20552;-70
2023/02/07 10:12:28;;;;;;;11.90;9.73;;;15.60;28.70;;;;;;5132952;27;20548;-70
2023/02/07 10:15:09;;;;;;;10.90;9.13;;;15.80;28.40;;;;;;5133252;27;20437;-72
2023/02/07 10:17:50;;;;;;;11.37;10.27;;;15.90;28.30;;;;;;5133157;27;20438;-71
2023/02/07 10:20:29;;;;;;;11.13;9.63;;;16.00;27.60;;;;;;5133156;28;20460;-71
2023/02/07 10:23:09;;;;;;;10.70;9.60;;;16.10;27.90;;;;;;5133104;27;20473;-72
2023/02/07 10:25:47;;;;;;;11.03;9.73;;;16.30;27.70;;;;;;5133322;27;20468;-71
2023/02/07 10:28:45;;;;;;;11.50;9.17;;;16.40;27.20;;;;;;5133156;27;20842;-71
2023/02/07 10:31:15;;;;;;;14.57;12.27;;;16.50;26.90;;;;;;5122819;27;20484;-71
2023/02/07 10:33:49;;;;;;;13.53;10.50;;;16.70;26.80;;;;;;5137107;27;20860;-71
2023/02/07 10:36:18;;;;;;;11.60;10.13;;;16.80;26.40;;;;;;5137008;27;20440;-70
2023/02/07 10:38:53;;;;;;;11.20;9.93;;;16.70;26.10;;;;;;5137042;27;20441;-70
2023/02/07 10:41:26;;;;;;;12.60;11.00;;;16.70;26.60;;;;;;5136885;27;20764;-70
2023/02/07 10:43:53;;;;;;;11.90;10.80;;;16.70;26.50;;;;;;5136517;27;20449;-71
2023/02/07 10:46:23;;;;;;;11.83;10.60;;;16.80;25.80;;;;;;5136606;27;20523;-71
2023/02/07 10:48:51;;;;;;;10.90;9.80;;;16.70;25.90;;;;;;5137000;27;20525;-70
2023/02/07 10:51:27;;;;;;;11.73;10.03;;;16.70;26.00;;;;;;5136642;27;20525;-70
2023/02/07 10:54:09;;;;;;;13.07;10.13;;;16.60;25.40;;;;;;5136637;27;20524;-70
2023/02/07 10:56:40;;;;;;;12.17;9.87;;;16.60;25.70;;;;;;5136579;27;20436;-71
2023/02/07 10:59:32;;;;;;;11.73;9.47;;;16.50;25.80;;;;;;5136426;27;20528;-71
2023/02/07 11:01:59;;;;;;;13.20;10.80;;;16.60;25.90;;;;;;5136813;27;20516;-71
2023/02/07 11:04:37;;;;;;;11.87;9.17;;;16.70;25.80;;;;;;5136726;27;20520;-71
2023/02/07 11:07:06;;;;;;;10.57;9.57;;;16.70;26.10;;;;;;5136313;27;20565;-71
2023/02/07 11:09:36;;;;;;;11.80;10.23;;;16.70;25.40;;;;;;5136795;27;20493;-71
2023/02/07 11:12:15;;;;;;;12.60;11.07;;;16.80;26.00;;;;;;5136088;27;20457;-71
2023/02/07 11:15:01;;;;;;;15.40;10.30;;;16.80;25.40;;;;;;5136521;27;20433;-71
2023/02/07 11:17:28;;;;;;;12.70;10.30;;;16.70;25.30;;;;;;5136555;27;20801;-70
2023/02/07 11:20:02;;;;;;;10.40;9.30;;;16.90;26.20;;;;;;5136324;27;20469;-71
2023/02/07 11:22:29;;;;;;;14.47;11.50;;;17.00;25.00;;;;;;5132989;27;20433;-71
2023/02/07 11:25:04;;;;;;;11.37;10.20;;;17.00;25.40;;;;;;5134762;27;20437;-71
2023/02/07 11:27:37;;;;;;;11.87;10.60;;;17.10;25.60;;;;;;5135640;27;20563;-72
2023/02/07 11:30:08;;;;;;;10.77;9.67;;;17.10;24.90;;;;;;5135251;27;20495;-71
2023/02/07 11:32:37;;;;;;;10.40;9.30;;;17.10;24.50;;;;;;5134759;27;20477;-71
2023/02/07 11:35:17;;;;;;;11.03;9.27;;;17.20;24.40;;;;;;5135390;27;20426;-71
2023/02/07 11:37:48;;;;;;;9.60;8.37;;;17.10;24.10;;;;;;5135283;27;20473;-71
2023/02/07 11:40:27;;;;;;;9.97;8.67;;;16.90;24.00;;;;;;5133217;27;20433;-71
2023/02/07 11:43:00;;;;;;;9.80;8.80;;;16.90;24.00;;;;;;5127635;27;20441;-70
2023/02/07 11:45:29;;;;;;;11.57;8.70;;;17.00;24.30;;;;;;5125206;27;20465;-71
2023/02/07 11:48:02;;;;;;;10.33;9.40;;;16.90;24.10;;;;;;5134720;27;20967;-70
2023/02/07 11:50:35;;;;;;;12.63;9.30;;;16.70;24.30;;;;;;5131882;27;20437;-72
2023/02/07 11:53:02;;;;;;;12.40;11.10;;;16.60;24.40;;;;;;5134369;27;20513;-71
2023/02/07 11:55:34;;;;;;;10.17;8.73;;;16.60;24.30;;;;;;5134548;27;20528;-71
2023/02/07 11:58:07;;;;;;;11.63;8.03;;;16.60;23.70;;;;;;5135479;27;20521;-72
2023/02/07 12:00:37;;;;;;;8.77;7.90;;;16.60;23.30;;;;;;5134237;27;20621;-71
2023/02/07 12:03:07;;;;;;;10.80;9.17;;;16.70;24.00;;;;;;5135511;27;20444;-71
2023/02/07 12:05:39;;;;;;;11.00;9.47;;;16.70;24.20;;;;;;5133695;27;20518;-71
2023/02/07 12:08:12;;;;;;;10.00;8.67;;;16.70;24.20;;;;;;5135228;27;20555;-71
2023/02/07 12:10:44;;;;;;;10.17;9.07;;;16.50;23.90;;;;;;5133081;27;20458;-71
2023/02/07 12:13:16;;;;;;;9.93;8.07;;;16.50;24.00;;;;;;5133590;27;20460;-71
2023/02/07 12:15:49;;;;;;;9.70;8.77;;;16.60;24.60;;;;;;5134848;27;20465;-70
2023/02/07 12:18:26;;;;;;;11.20;9.27;;;16.40;24.10;;;;;;5134335;27;20438;-71
2023/02/07 12:21:00;;;;;;;9.87;8.87;;;16.30;24.30;;;;;;5133773;27;20425;-71
2023/02/07 12:23:38;;;;;;;9.30;8.40;;;16.10;24.00;;;;;;5133962;27;20437;-70
2023/02/07 12:26:13;;;;;;;13.77;8.37;;;16.10;23.80;;;;;;5134393;27;20437;-71
2023/02/07 12:28:45;;;;;;;8.40;7.60;;;16.20;23.60;;;;;;5133509;27;20567;-70
2023/02/07 12:31:19;;;;;;;8.80;7.90;;;16.30;23.60;;;;;;5134389;27;20534;-71
2023/02/07 12:33:52;;;;;;;11.10;7.87;;;16.30;23.80;;;;;;5135386;27;20486;-71
2023/02/07 12:36:27;;;;;;;8.20;7.27;;;16.40;23.20;;;;;;5133465;27;20451;-71
2023/02/07 12:39:00;;;;;;;8.80;7.90;;;16.40;23.40;;;;;;5134263;27;20515;-70
2023/02/07 12:41:35;;;;;;;8.67;7.60;;;16.30;22.80;;;;;;5134585;27;20445;-70
2023/02/07 12:44:09;;;;;;;11.73;8.27;;;16.30;22.60;;;;;;5134764;27;20468;-71
2023/02/07 12:46:47;;;;;;;8.97;8.07;;;16.00;22.30;;;;;;5134381;27;20441;-72
2023/02/07 12:49:43;;;;;;;9.67;8.70;;;15.60;22.50;;;;;;5134577;27;20511;-70
2023/02/07 12:52:26;;;;;;;7.90;7.10;;;15.60;23.90;;;;;;5134158;27;20480;-70
2023/02/07 12:55:08;;;;;;;8.40;7.53;;;15.60;23.80;;;;;;5133727;27;20437;-70